Time;durP1;ratioP1;P1;durP2;ratioP2;P2;SDS_P1;SDS_P2;PMS_P1;PMS_P2;Temp;Humidity;BMP_temperature;BMP_pressure;BME280_temperature;BME280_humidity;BME280_pressure;Samples;Min_cycle;Max_cycle;Signal;HPM_P1;HPM_P2
2024/02/03 00:00:05;;;;;;;23.77;8.45;;;9.30;99.90;;;;;;5034791;28;20473;-82
2024/02/03 00:02:32;;;;;;;13.75;6.82;;;9.20;99.90;;;;;;5034761;28;20062;-82
2024/02/03 00:04:57;;;;;;;17.48;7.60;;;9.20;99.90;;;;;;5045468;28;20090;-82
2024/02/03 00:07:23;;;;;;;16.05;6.82;;;9.20;99.90;;;;;;5034020;28;20116;-83
2024/02/03 00:09:49;;;;;;;22.63;8.13;;;9.20;99.90;;;;;;5033682;28;20025;-82
2024/02/03 00:12:15;;;;;;;22.35;7.25;;;9.20;99.90;;;;;;5033150;28;20044;-82
2024/02/03 00:14:41;;;;;;;25.55;8.10;;;9.20;99.90;;;;;;5044548;28;20025;-82
2024/02/03 00:17:06;;;;;;;20.08;7.00;;;9.20;99.90;;;;;;5035628;28;20029;-82
2024/02/03 00:19:32;;;;;;;15.18;6.22;;;9.20;99.90;;;;;;5033772;28;20491;-82
2024/02/03 00:21:58;;;;;;;17.77;6.13;;;9.20;99.90;;;;;;5034280;28;20028;-82
2024/02/03 00:24:24;;;;;;;19.67;6.85;;;9.20;99.90;;;;;;5042446;28;20036;-82
2024/02/03 00:26:50;;;;;;;16.70;6.90;;;9.20;99.90;;;;;;5036821;28;20033;-82
2024/02/03 00:29:15;;;;;;;16.33;6.28;;;9.20;99.90;;;;;;5033541;28;20027;-82
2024/02/03 00:31:41;;;;;;;16.83;6.10;;;9.20;99.90;;;;;;5033601;28;20111;-81
2024/02/03 00:34:06;;;;;;;18.77;5.75;;;9.10;99.90;;;;;;5039326;28;20078;-82
2024/02/03 00:36:33;;;;;;;17.60;5.28;;;9.10;99.90;;;;;;5039269;28;20465;-83
2024/02/03 00:38:59;;;;;;;23.08;5.55;;;9.20;99.90;;;;;;5033595;28;20025;-82
2024/02/03 00:41:24;;;;;;;15.90;5.15;;;9.20;99.90;;;;;;5033193;28;20040;-82
2024/02/03 00:43:50;;;;;;;19.52;5.10;;;9.20;99.90;;;;;;5041752;28;20208;-83
2024/02/03 00:46:16;;;;;;;16.92;5.70;;;9.30;99.90;;;;;;5045052;28;20480;-82
2024/02/03 00:48:42;;;;;;;18.50;5.30;;;9.30;99.90;;;;;;5051988;28;20124;-83
2024/02/03 00:51:11;;;;;;;16.27;4.82;;;9.30;99.90;;;;;;5053483;28;20056;-83
2024/02/03 00:53:38;;;;;;;12.02;4.07;;;9.40;99.90;;;;;;5048957;28;20064;-83
2024/02/03 00:56:04;;;;;;;16.83;5.65;;;9.40;99.90;;;;;;5044172;28;20116;-83
2024/02/03 00:58:30;;;;;;;20.25;4.13;;;9.40;99.90;;;;;;5033722;28;20436;-82
2024/02/03 01:00:56;;;;;;;24.73;5.95;;;9.40;99.90;;;;;;5032771;28;20113;-82
2024/02/03 01:03:21;;;;;;;17.55;4.85;;;9.40;99.90;;;;;;5033215;28;20021;-82
2024/02/03 01:05:47;;;;;;;17.13;5.15;;;9.40;99.90;;;;;;5032648;28;20448;-82
2024/02/03 01:08:13;;;;;;;21.50;5.43;;;9.50;99.90;;;;;;5041119;28;20349;-83
2024/02/03 01:10:39;;;;;;;14.73;5.05;;;9.40;99.90;;;;;;5036303;28;20030;-83
2024/02/03 01:13:04;;;;;;;17.40;5.28;;;9.40;99.90;;;;;;5033405;28;20033;-81
2024/02/03 01:15:30;;;;;;;14.70;5.18;;;9.50;99.90;;;;;;5032738;28;20025;-81
2024/02/03 01:17:56;;;;;;;16.85;4.95;;;9.50;99.90;;;;;;5037274;28;20453;-81
2024/02/03 01:20:21;;;;;;;17.67;4.68;;;9.50;99.90;;;;;;5052898;28;20032;-83
2024/02/03 01:22:47;;;;;;;16.48;4.53;;;9.50;99.90;;;;;;5051969;28;20112;-82
2024/02/03 01:25:13;;;;;;;14.15;5.10;;;9.50;99.90;;;;;;5053165;28;20033;-82
2024/02/03 01:27:39;;;;;;;15.07;4.68;;;9.50;99.90;;;;;;5050937;28;20112;-83
2024/02/03 01:30:05;;;;;;;15.45;5.10;;;9.40;99.90;;;;;;5043492;28;20183;-83
2024/02/03 01:32:31;;;;;;;16.17;5.18;;;9.50;99.90;;;;;;5032490;28;20076;-83
2024/02/03 01:34:56;;;;;;;17.88;5.25;;;9.50;99.90;;;;;;5032488;28;20145;-83
2024/02/03 01:37:22;;;;;;;25.85;5.95;;;9.50;99.90;;;;;;5031861;28;20538;-84
2024/02/03 01:39:47;;;;;;;16.67;5.40;;;9.50;99.90;;;;;;5032617;28;20167;-84
2024/02/03 01:42:13;;;;;;;16.52;5.30;;;9.50;99.90;;;;;;5042329;28;20025;-84
2024/02/03 01:44:39;;;;;;;24.10;4.45;;;9.50;99.90;;;;;;5033621;28;20461;-84
2024/02/03 01:47:06;;;;;;;16.77;5.35;;;9.50;99.90;;;;;;5031535;28;20041;-84
2024/02/03 01:49:32;;;;;;;19.95;5.35;;;9.50;99.90;;;;;;5032719;28;20018;-84
2024/02/03 01:51:58;;;;;;;17.30;5.10;;;9.60;99.90;;;;;;5032250;28;20025;-83
2024/02/03 01:54:28;;;;;;;14.48;4.75;;;9.60;99.90;;;;;;5044223;28;20068;-83
2024/02/03 01:56:57;;;;;;;18.37;5.07;;;9.60;99.90;;;;;;5032130;28;20044;-84
2024/02/03 01:59:27;;;;;;;11.02;4.97;;;9.60;99.90;;;;;;5032460;28;20037;-83
2024/02/03 02:01:56;;;;;;;15.33;4.30;;;9.70;99.90;;;;;;5032686;28;20029;-83
2024/02/03 02:04:24;;;;;;;12.15;4.00;;;9.70;99.90;;;;;;5043135;28;20025;-82
2024/02/03 02:06:52;;;;;;;17.88;4.50;;;9.60;99.90;;;;;;5032582;28;20087;-83
2024/02/03 02:09:22;;;;;;;14.70;4.15;;;9.70;99.90;;;;;;5032324;28;20029;-83
2024/02/03 02:11:48;;;;;;;19.88;4.68;;;9.70;99.90;;;;;;5031155;28;20036;-83
2024/02/03 02:14:14;;;;;;;14.45;3.38;;;9.70;99.90;;;;;;5040292;28;20037;-84
2024/02/03 02:16:39;;;;;;;13.07;3.85;;;9.70;99.90;;;;;;5051536;28;20028;-84
2024/02/03 02:19:05;;;;;;;12.70;3.72;;;9.70;99.90;;;;;;5051531;28;20029;-82
2024/02/03 02:21:31;;;;;;;17.48;4.13;;;9.80;99.90;;;;;;5052147;28;20031;-82
2024/02/03 02:23:57;;;;;;;13.48;3.92;;;9.80;99.90;;;;;;5047760;28;20025;-83
2024/02/03 02:26:23;;;;;;;15.80;4.07;;;9.80;99.90;;;;;;5040689;28;20049;-83
2024/02/03 02:28:49;;;;;;;16.83;4.82;;;9.80;99.90;;;;;;5031408;28;20028;-84
2024/02/03 02:31:15;;;;;;;16.30;3.28;;;9.80;99.90;;;;;;5031768;28;20065;-83
2024/02/03 02:33:40;;;;;;;14.90;4.38;;;9.80;99.90;;;;;;5031065;28;20532;-84
2024/02/03 02:36:06;;;;;;;14.35;3.65;;;9.80;99.90;;;;;;5033339;28;20120;-84
2024/02/03 02:38:32;;;;;;;12.85;4.18;;;9.80;99.90;;;;;;5042519;28;20052;-84
2024/02/03 02:40:58;;;;;;;13.88;4.15;;;9.80;99.90;;;;;;5031229;28;20033;-84
2024/02/03 02:43:23;;;;;;;11.90;3.33;;;9.80;99.90;;;;;;5031667;28;20021;-83
2024/02/03 02:45:49;;;;;;;20.77;4.35;;;9.80;99.90;;;;;;5031252;28;20033;-83
2024/02/03 02:48:14;;;;;;;19.60;4.50;;;9.80;99.90;;;;;;5039994;28;20056;-83
2024/02/03 02:50:40;;;;;;;13.52;4.22;;;9.80;99.90;;;;;;5051446;28;20033;-83
2024/02/03 02:53:07;;;;;;;15.93;4.55;;;9.80;99.90;;;;;;5049810;28;20029;-83
2024/02/03 02:55:32;;;;;;;14.45;4.22;;;9.80;99.90;;;;;;5050505;28;20040;-82
2024/02/03 02:57:58;;;;;;;20.52;3.67;;;9.80;99.90;;;;;;5051159;28;20480;-84
2024/02/03 03:00:24;;;;;;;11.57;4.00;;;9.80;99.90;;;;;;5043177;28;20029;-83
2024/02/03 03:02:49;;;;;;;16.13;4.18;;;9.80;99.90;;;;;;5055658;28;20020;-85
2024/02/03 03:05:15;;;;;;;15.93;4.18;;;9.80;99.90;;;;;;5055967;28;20021;-84
2024/02/03 03:07:41;;;;;;;16.00;4.10;;;9.80;99.90;;;;;;5054337;28;20487;-84
2024/02/03 03:10:07;;;;;;;13.23;3.90;;;9.90;99.90;;;;;;5054911;28;20142;-84
2024/02/03 03:12:33;;;;;;;17.45;3.90;;;9.70;99.90;;;;;;5046733;28;20021;-84
2024/02/03 03:14:59;;;;;;;15.70;3.80;;;9.80;99.90;;;;;;5035272;28;20037;-83
2024/02/03 03:17:24;;;;;;;16.27;3.85;;;9.80;99.90;;;;;;5035570;28;20026;-84
2024/02/03 03:19:50;;;;;;;10.35;3.22;;;9.70;99.90;;;;;;5034652;28;20481;-83
2024/02/03 03:22:18;;;;;;;16.70;4.60;;;9.70;99.90;;;;;;5035461;28;20029;-83
2024/02/03 03:24:44;;;;;;;18.63;4.05;;;9.70;99.90;;;;;;5047780;28;20480;-84
2024/02/03 03:27:10;;;;;;;16.45;3.70;;;9.70;99.90;;;;;;5034868;28;20037;-83
2024/02/03 03:29:36;;;;;;;19.35;3.63;;;9.70;99.90;;;;;;5051858;28;20067;-83
2024/02/03 03:32:01;;;;;;;18.27;3.53;;;9.80;99.90;;;;;;5055175;28;20036;-84
2024/02/03 03:34:27;;;;;;;18.20;3.75;;;9.80;99.90;;;;;;5053524;28;20138;-83
2024/02/03 03:36:53;;;;;;;12.38;3.47;;;9.70;99.90;;;;;;5046015;28;20033;-83
2024/02/03 03:39:18;;;;;;;9.88;3.55;;;9.70;99.90;;;;;;5034848;28;20032;-82
2024/02/03 03:41:44;;;;;;;18.30;3.85;;;9.80;99.90;;;;;;5034570;28;20029;-81
2024/02/03 03:44:09;;;;;;;14.05;3.67;;;9.80;99.90;;;;;;5034096;28;20021;-82
2024/02/03 03:46:35;;;;;;;16.00;3.50;;;9.80;99.90;;;;;;5036329;28;20037;-82
2024/02/03 03:49:01;;;;;;;21.23;3.40;;;9.80;99.90;;;;;;5045808;28;20021;-82
2024/02/03 03:51:26;;;;;;;18.23;3.10;;;9.80;99.90;;;;;;5033874;28;20052;-82
2024/02/03 03:53:52;;;;;;;13.95;2.75;;;9.80;99.90;;;;;;5034984;28;20036;-83
2024/02/03 03:56:19;;;;;;;14.40;3.53;;;10.80;99.90;;;;;;5035105;28;20098;-82
2024/02/03 03:58:44;;;;;;;9.20;2.40;;;9.80;99.90;;;;;;5043949;28;20053;-83
2024/02/03 04:01:10;;;;;;;19.85;3.05;;;9.80;99.90;;;;;;5034732;28;20056;-82
2024/02/03 04:03:36;;;;;;;12.43;2.95;;;9.80;99.90;;;;;;5033852;28;20064;-82
2024/02/03 04:06:01;;;;;;;21.52;3.60;;;9.80;99.90;;;;;;5034447;28;20392;-82
2024/02/03 04:08:27;;;;;;;22.48;3.03;;;9.80;99.90;;;;;;5034770;28;20021;-82
2024/02/03 04:10:52;;;;;;;11.88;2.40;;;9.80;99.90;;;;;;5044381;28;20037;-82
2024/02/03 04:13:18;;;;;;;20.20;3.60;;;9.90;99.90;;;;;;5034274;28;20108;-82
2024/02/03 04:15:44;;;;;;;16.70;2.70;;;9.80;99.90;;;;;;5034256;28;20101;-82
2024/02/03 04:18:11;;;;;;;16.88;2.85;;;9.80;99.90;;;;;;5034026;28;20584;-82
2024/02/03 04:20:37;;;;;;;18.38;3.15;;;9.80;99.90;;;;;;5035141;28;20053;-82
2024/02/03 04:23:03;;;;;;;14.77;3.72;;;9.80;99.90;;;;;;5042832;28;20059;-81
2024/02/03 04:25:29;;;;;;;21.25;2.95;;;9.80;99.90;;;;;;5052037;28;20068;-84
2024/02/03 04:28:03;;;;;;;17.15;3.88;;;9.80;99.90;;;;;;5054372;28;20384;-84
2024/02/03 04:30:29;;;;;;;22.27;3.90;;;9.80;99.90;;;;;;5053718;28;20049;-83
2024/02/03 04:32:54;;;;;;;18.75;3.53;;;10.00;99.90;;;;;;5050000;28;20026;-83
2024/02/03 04:35:35;;;;;;;14.48;2.85;;;9.70;99.90;;;;;;5043294;28;20468;-83
2024/02/03 04:38:02;;;;;;;18.92;2.85;;;10.50;99.90;;;;;;5033648;28;20056;-82
2024/02/03 04:40:28;;;;;;;13.15;3.38;;;9.80;99.90;;;;;;5033598;28;20072;-82
2024/02/03 04:42:54;;;;;;;24.73;3.38;;;9.80;99.90;;;;;;5035826;28;20645;-83
2024/02/03 04:45:20;;;;;;;18.38;3.05;;;9.80;99.90;;;;;;5043893;28;20026;-83
2024/02/03 04:47:46;;;;;;;21.02;3.40;;;9.80;99.90;;;;;;5033266;28;20038;-83
2024/02/03 04:50:14;;;;;;;14.10;3.17;;;9.80;99.90;;;;;;5033943;28;20083;-83
2024/02/03 04:52:39;;;;;;;14.75;3.97;;;9.80;99.90;;;;;;5034683;28;20029;-83
2024/02/03 04:55:05;;;;;;;10.52;2.80;;;9.80;99.90;;;;;;5041242;28;20087;-83
2024/02/03 04:57:31;;;;;;;19.10;3.10;;;9.80;99.90;;;;;;5053401;28;20032;-83
2024/02/03 04:59:56;;;;;;;15.38;2.97;;;9.80;99.90;;;;;;5051327;28;20146;-83
2024/02/03 05:02:22;;;;;;;13.05;2.42;;;9.80;99.90;;;;;;5053612;28;20021;-82
2024/02/03 05:04:47;;;;;;;20.10;3.42;;;9.80;99.90;;;;;;5050172;28;20018;-83
2024/02/03 05:07:13;;;;;;;15.48;3.15;;;9.80;99.90;;;;;;5043840;28;20401;-84
2024/02/03 05:09:40;;;;;;;22.92;3.50;;;9.80;99.90;;;;;;5033259;28;20022;-83
2024/02/03 05:12:06;;;;;;;18.83;3.25;;;9.90;99.90;;;;;;5033695;28;20105;-83
2024/02/03 05:14:31;;;;;;;13.02;3.28;;;9.80;99.90;;;;;;5033000;28;20484;-83
2024/02/03 05:16:59;;;;;;;9.85;2.55;;;9.80;99.90;;;;;;5033477;28;20105;-82
2024/02/03 05:19:27;;;;;;;19.42;3.88;;;9.90;99.90;;;;;;5033362;28;20053;-81
2024/02/03 05:21:53;;;;;;;14.73;3.20;;;9.80;99.90;;;;;;5031203;28;20072;-83
2024/02/03 05:24:19;;;;;;;12.15;2.40;;;9.80;99.90;;;;;;5033024;28;20029;-83
2024/02/03 05:26:44;;;;;;;9.52;2.42;;;9.90;99.90;;;;;;5032557;28;20400;-83
2024/02/03 05:29:10;;;;;;;21.70;3.20;;;9.80;99.90;;;;;;5041909;28;20494;-82
2024/02/03 05:31:37;;;;;;;15.07;3.10;;;9.90;99.90;;;;;;5035708;28;20053;-83
2024/02/03 05:34:02;;;;;;;16.17;2.75;;;9.80;99.90;;;;;;5033355;28;20017;-84
2024/02/03 05:36:28;;;;;;;11.05;2.83;;;9.80;99.90;;;;;;5032234;28;20036;-82
2024/02/03 05:38:53;;;;;;;17.60;3.05;;;9.70;99.90;;;;;;5039489;28;20029;-83
2024/02/03 05:41:19;;;;;;;15.43;3.40;;;9.80;99.90;;;;;;5037692;28;20044;-83
2024/02/03 05:43:46;;;;;;;16.27;3.70;;;9.80;99.90;;;;;;5031428;28;20408;-83
2024/02/03 05:46:11;;;;;;;26.95;4.72;;;9.80;99.90;;;;;;5032798;28;20065;-82
2024/02/03 05:48:37;;;;;;;11.30;2.78;;;9.80;99.90;;;;;;5036970;28;20064;-82
2024/02/03 05:51:03;;;;;;;23.77;3.63;;;9.80;99.90;;;;;;5039675;28;20521;-84
2024/02/03 05:53:34;;;;;;;22.80;4.18;;;9.80;99.90;;;;;;5032663;28;20483;-83
2024/02/03 05:56:00;;;;;;;14.73;4.13;;;9.70;99.90;;;;;;5032622;28;20021;-84
2024/02/03 05:58:26;;;;;;;12.93;3.47;;;9.80;99.90;;;;;;5035811;28;20033;-83
2024/02/03 06:00:51;;;;;;;22.33;5.03;;;9.70;99.90;;;;;;5040814;28;20373;-83
2024/02/03 06:03:17;;;;;;;18.83;5.05;;;9.70;99.90;;;;;;5032005;28;20474;-84
2024/02/03 06:05:42;;;;;;;22.13;4.68;;;9.90;99.90;;;;;;5031877;28;20481;-82
2024/02/03 06:08:08;;;;;;;18.98;4.80;;;9.80;99.90;;;;;;5035620;28;20036;-83
2024/02/03 06:10:33;;;;;;;17.60;4.13;;;9.80;99.90;;;;;;5039517;28;20025;-82
2024/02/03 06:12:59;;;;;;;22.50;3.97;;;10.80;99.90;;;;;;5032380;28;20035;-82
2024/02/03 06:15:25;;;;;;;19.88;4.22;;;9.80;99.90;;;;;;5031626;28;20558;-83
2024/02/03 06:17:50;;;;;;;15.20;4.43;;;9.80;99.90;;;;;;5031406;28;20033;-83
2024/02/03 06:20:16;;;;;;;17.20;3.80;;;9.80;99.90;;;;;;5037435;28;20022;-82
2024/02/03 06:22:41;;;;;;;26.38;4.88;;;9.80;99.90;;;;;;5039055;28;20469;-83
2024/02/03 06:25:07;;;;;;;20.65;4.55;;;9.80;99.90;;;;;;5031657;28;20492;-83
2024/02/03 06:27:33;;;;;;;25.70;4.45;;;9.80;99.90;;;;;;5032423;28;20469;-82
2024/02/03 06:29:58;;;;;;;19.63;4.50;;;9.90;99.90;;;;;;5032702;28;20176;-86
2024/02/03 06:32:24;;;;;;;23.52;5.50;;;9.80;99.90;;;;;;5035933;28;20075;-82
2024/02/03 06:34:49;;;;;;;25.65;5.53;;;9.80;99.90;;;;;;5045788;28;20456;-83
2024/02/03 06:37:15;;;;;;;17.55;3.80;;;9.90;99.90;;;;;;5051210;28;20376;-83
2024/02/03 06:39:41;;;;;;;20.20;4.97;;;9.80;99.90;;;;;;5050959;28;20025;-82
2024/02/03 06:42:06;;;;;;;17.35;5.43;;;9.80;99.90;;;;;;5046803;28;20036;-83
2024/02/03 06:44:32;;;;;;;24.08;4.97;;;9.80;99.90;;;;;;5040513;28;20026;-82
2024/02/03 06:46:57;;;;;;;27.20;4.15;;;10.50;99.90;;;;;;5031137;28;20103;-83
2024/02/03 06:49:23;;;;;;;24.08;4.55;;;10.50;99.90;;;;;;5031689;28;20053;-83
2024/02/03 06:51:48;;;;;;;17.67;4.30;;;9.80;99.90;;;;;;5031719;28;20029;-82
2024/02/03 06:54:14;;;;;;;19.70;5.25;;;9.80;99.90;;;;;;5041313;28;20502;-83
2024/02/03 06:56:39;;;;;;;23.55;4.95;;;9.70;99.90;;;;;;5033657;28;20115;-82
2024/02/03 06:59:05;;;;;;;20.15;3.97;;;9.70;99.90;;;;;;5032023;28;20018;-83
2024/02/03 07:01:31;;;;;;;19.95;4.93;;;10.10;99.90;;;;;;5030568;28;20025;-83
2024/02/03 07:03:56;;;;;;;17.38;4.63;;;9.70;99.90;;;;;;5039042;28;20377;-83
2024/02/03 07:06:22;;;;;;;18.58;4.90;;;9.70;99.90;;;;;;5050755;28;20082;-82
2024/02/03 07:08:47;;;;;;;34.60;4.88;;;9.70;99.90;;;;;;5051436;28;20052;-81
2024/02/03 07:11:13;;;;;;;18.75;4.63;;;9.70;99.90;;;;;;5051628;28;20032;-82
2024/02/03 07:13:41;;;;;;;24.92;5.22;;;9.70;99.90;;;;;;5050497;28;20021;-83
2024/02/03 07:16:08;;;;;;;30.90;6.05;;;9.70;99.90;;;;;;5043742;28;20033;-83
2024/02/03 07:18:33;;;;;;;31.45;5.63;;;9.70;99.90;;;;;;5034040;28;20025;-82
2024/02/03 07:20:59;;;;;;;30.05;4.47;;;9.60;99.90;;;;;;5032870;28;20025;-82
2024/02/03 07:23:25;;;;;;;26.98;5.43;;;9.60;99.90;;;;;;5031377;28;20477;-83
2024/02/03 07:25:50;;;;;;;25.25;4.50;;;9.70;99.90;;;;;;5034943;28;20048;-83
2024/02/03 07:28:16;;;;;;;24.55;5.25;;;9.70;99.90;;;;;;5039773;28;20521;-82
2024/02/03 07:30:42;;;;;;;23.35;5.22;;;9.70;99.90;;;;;;5031038;28;20493;-83
2024/02/03 07:33:12;;;;;;;22.73;5.93;;;9.70;99.90;;;;;;5030953;28;20059;-83
2024/02/03 07:35:37;;;;;;;24.48;4.68;;;9.70;99.90;;;;;;5030794;28;20112;-83
2024/02/03 07:38:03;;;;;;;25.58;4.55;;;9.70;99.90;;;;;;5041069;28;20146;-82
2024/02/03 07:40:29;;;;;;;25.17;4.60;;;9.70;99.90;;;;;;5033453;28;20229;-82
2024/02/03 07:42:54;;;;;;;31.10;4.53;;;9.80;99.90;;;;;;5030467;28;20052;-82
2024/02/03 07:45:20;;;;;;;22.20;4.57;;;9.70;99.90;;;;;;5032887;28;20037;-84
2024/02/03 07:47:45;;;;;;;27.98;5.10;;;9.70;99.90;;;;;;5037990;28;20476;-82
2024/02/03 07:50:11;;;;;;;32.60;5.55;;;9.70;99.90;;;;;;5034420;28;20465;-83
2024/02/03 07:52:37;;;;;;;21.88;4.72;;;9.70;99.90;;;;;;5034748;28;20144;-83
2024/02/03 07:55:03;;;;;;;27.23;5.63;;;9.70;99.90;;;;;;5034976;28;20021;-82
2024/02/03 07:57:29;;;;;;;19.10;4.32;;;9.70;99.90;;;;;;5035068;28;20045;-83
2024/02/03 07:59:55;;;;;;;18.13;4.45;;;9.70;99.90;;;;;;5045955;28;20061;-83
2024/02/03 08:02:23;;;;;;;22.65;4.50;;;9.70;99.90;;;;;;5034632;28;20064;-83
2024/02/03 08:04:49;;;;;;;25.85;4.40;;;9.70;99.90;;;;;;5033845;28;20076;-83
2024/02/03 08:07:14;;;;;;;24.30;5.03;;;9.70;99.90;;;;;;5036018;28;20512;-83
2024/02/03 08:09:40;;;;;;;16.35;4.15;;;9.70;99.90;;;;;;5048966;28;20104;-83
2024/02/03 08:12:06;;;;;;;22.13;4.22;;;9.70;99.90;;;;;;5054251;28;20060;-83
2024/02/03 08:14:31;;;;;;;21.33;3.78;;;9.70;99.90;;;;;;5055145;28;20036;-83
2024/02/03 08:16:57;;;;;;;18.77;4.07;;;9.70;99.90;;;;;;5050771;28;20068;-82
2024/02/03 08:19:22;;;;;;;19.38;4.97;;;9.70;99.90;;;;;;5048749;28;20029;-83
2024/02/03 08:21:48;;;;;;;25.17;5.70;;;9.70;99.90;;;;;;5043603;28;20083;-82
2024/02/03 08:24:14;;;;;;;23.30;4.18;;;9.70;99.90;;;;;;5041033;28;20047;-82
2024/02/03 08:26:40;;;;;;;30.73;6.25;;;9.70;99.90;;;;;;5031889;28;20041;-82
2024/02/03 08:29:05;;;;;;;27.00;5.28;;;9.80;99.90;;;;;;5044868;28;20515;-83
2024/02/03 08:31:31;;;;;;;20.60;4.18;;;9.70;99.90;;;;;;5049723;28;20106;-84
2024/02/03 08:33:57;;;;;;;26.63;4.35;;;9.80;99.90;;;;;;5051564;28;20491;-83
2024/02/03 08:36:23;;;;;;;19.77;4.10;;;9.80;99.90;;;;;;5045092;28;20082;-83
2024/02/03 08:38:48;;;;;;;25.75;4.25;;;10.50;99.90;;;;;;5036728;28;20034;-82
2024/02/03 08:41:19;;;;;;;25.63;4.43;;;9.80;99.90;;;;;;5039974;28;20389;-83
2024/02/03 08:43:45;;;;;;;22.02;5.03;;;9.80;99.90;;;;;;5043041;28;20033;-82
2024/02/03 08:46:11;;;;;;;20.30;4.78;;;9.80;99.90;;;;;;5041980;28;20037;-82
2024/02/03 08:48:36;;;;;;;25.75;4.93;;;10.20;99.90;;;;;;5041836;28;20571;-82
2024/02/03 08:51:02;;;;;;;27.40;5.40;;;9.80;99.90;;;;;;5048862;28;20021;-82
2024/02/03 08:53:28;;;;;;;33.97;5.20;;;9.90;99.90;;;;;;5039448;28;20025;-82
2024/02/03 08:55:53;;;;;;;27.17;5.75;;;11.00;99.90;;;;;;5048023;28;20465;-82
2024/02/03 08:58:19;;;;;;;20.65;4.85;;;9.90;99.90;;;;;;5051197;28;20039;-83
2024/02/03 09:00:44;;;;;;;41.33;4.85;;;9.90;99.90;;;;;;5045285;28;20033;-83
2024/02/03 09:03:10;;;;;;;19.38;4.45;;;9.90;99.90;;;;;;5051300;28;20036;-81
2024/02/03 09:05:36;;;;;;;22.58;4.30;;;9.90;99.90;;;;;;5048155;28;20039;-82
2024/02/03 09:08:02;;;;;;;19.42;4.78;;;9.90;99.90;;;;;;5049883;28;20167;-83
2024/02/03 09:10:27;;;;;;;21.08;5.10;;;9.90;99.90;;;;;;5049486;28;20392;-83
2024/02/03 09:12:53;;;;;;;20.35;4.05;;;10.00;99.90;;;;;;5048369;28;20025;-83
2024/02/03 09:15:18;;;;;;;16.17;3.35;;;10.00;99.90;;;;;;5050740;28;20025;-83
2024/02/03 09:17:44;;;;;;;22.42;4.00;;;9.90;99.90;;;;;;5051700;28;20476;-81
2024/02/03 09:20:10;;;;;;;27.15;4.63;;;10.00;99.90;;;;;;5049447;28;20116;-82
2024/02/03 09:22:36;;;;;;;18.52;4.03;;;10.00;99.90;;;;;;5041606;28;20573;-81
2024/02/03 09:25:01;;;;;;;22.88;3.67;;;10.00;99.90;;;;;;5039755;28;20021;-83
2024/02/03 09:27:27;;;;;;;26.95;4.13;;;10.00;99.90;;;;;;5031363;28;20025;-84
2024/02/03 09:29:52;;;;;;;24.40;4.45;;;10.00;99.90;;;;;;5032825;28;20100;-82
2024/02/03 09:32:19;;;;;;;24.02;4.35;;;10.00;99.90;;;;;;5046281;28;20094;-82
2024/02/03 09:34:48;;;;;;;26.08;5.53;;;10.00;99.90;;;;;;5038661;28;20472;-82
2024/02/03 09:37:14;;;;;;;17.17;4.05;;;10.00;99.90;;;;;;5042261;28;20025;-83
2024/02/03 09:39:43;;;;;;;15.88;3.80;;;10.00;99.90;;;;;;5049804;28;20041;-80
2024/02/03 09:42:08;;;;;;;25.00;4.65;;;9.90;99.90;;;;;;5033245;28;20083;-82
2024/02/03 09:44:34;;;;;;;14.13;3.28;;;9.90;99.90;;;;;;5032607;28;20033;-83
2024/02/03 09:47:01;;;;;;;21.30;3.58;;;9.90;99.90;;;;;;5049526;28;20090;-82
2024/02/03 09:49:26;;;;;;;16.75;4.65;;;9.90;99.90;;;;;;5046636;28;20021;-82
2024/02/03 09:51:52;;;;;;;22.33;3.95;;;11.00;99.90;;;;;;5048811;28;20185;-83
2024/02/03 09:54:18;;;;;;;23.45;3.63;;;9.90;99.90;;;;;;5048882;28;20056;-84
2024/02/03 09:56:44;;;;;;;26.15;3.90;;;9.90;99.90;;;;;;5049444;28;20049;-83
2024/02/03 09:59:10;;;;;;;18.48;4.05;;;9.90;99.90;;;;;;5051358;28;20028;-81
2024/02/03 10:01:36;;;;;;;25.25;4.78;;;9.90;99.90;;;;;;5051255;28;20025;-83
2024/02/03 10:04:01;;;;;;;12.68;3.17;;;9.90;99.90;;;;;;5048114;28;20039;-80
2024/02/03 10:06:28;;;;;;;20.55;4.35;;;9.90;99.90;;;;;;5030744;28;20049;-81
2024/02/03 10:08:53;;;;;;;23.38;3.72;;;9.90;99.90;;;;;;5031043;28;20034;-83
2024/02/03 10:11:20;;;;;;;16.42;4.28;;;9.90;99.90;;;;;;5030766;28;20473;-83
2024/02/03 10:14:02;;;;;;;17.27;3.72;;;9.90;99.90;;;;;;5033313;28;20021;-83
2024/02/03 10:16:29;;;;;;;14.27;3.10;;;9.90;99.90;;;;;;5031494;28;20030;-83
2024/02/03 10:18:54;;;;;;;14.77;2.67;;;10.00;99.90;;;;;;5032939;28;20287;-84
2024/02/03 10:21:20;;;;;;;8.90;2.38;;;9.90;99.90;;;;;;5043061;28;20376;-83
2024/02/03 10:23:52;;;;;;;14.25;3.20;;;10.00;99.90;;;;;;5047894;28;20029;-84
2024/02/03 10:26:18;;;;;;;16.48;2.30;;;10.00;99.90;;;;;;5037460;28;20076;-83
2024/02/03 10:28:44;;;;;;;11.07;2.92;;;10.00;99.90;;;;;;5018001;28;20421;-83
2024/02/03 10:31:11;;;;;;;18.38;4.20;;;10.00;99.90;;;;;;5048147;28;20118;-83
2024/02/03 10:33:37;;;;;;;13.13;2.90;;;10.00;99.90;;;;;;5049238;28;20487;-84
2024/02/03 10:36:03;;;;;;;19.83;3.85;;;10.60;99.90;;;;;;5050655;28;20035;-84
2024/02/03 10:38:29;;;;;;;20.00;4.07;;;10.10;99.90;;;;;;5039531;28;20117;-83
2024/02/03 10:40:55;;;;;;;14.70;3.67;;;10.00;99.90;;;;;;5049046;28;20029;-83
2024/02/03 10:43:24;;;;;;;17.27;3.30;;;10.00;99.90;;;;;;5049161;28;20028;-82
2024/02/03 10:45:56;;;;;;;17.08;3.58;;;10.00;99.90;;;;;;5046712;28;20021;-83
2024/02/03 10:48:25;;;;;;;11.05;2.63;;;10.00;99.90;;;;;;5047098;28;20034;-83
2024/02/03 10:50:56;;;;;;;14.13;3.92;;;9.90;99.90;;;;;;5049882;28;20021;-83
2024/02/03 10:53:27;;;;;;;10.82;2.70;;;9.90;99.90;;;;;;5048122;28;20373;-83
2024/02/03 10:55:57;;;;;;;13.82;3.33;;;9.90;99.90;;;;;;5036290;28;20060;-84
2024/02/03 10:58:28;;;;;;;16.42;2.95;;;9.90;99.90;;;;;;5038372;28;20028;-84
2024/02/03 11:00:57;;;;;;;12.77;3.30;;;10.00;99.90;;;;;;5038153;28;20063;-84
2024/02/03 11:03:23;;;;;;;13.18;3.40;;;10.50;99.90;;;;;;5048451;28;20057;-84
2024/02/03 11:05:53;;;;;;;18.20;3.00;;;10.00;99.90;;;;;;5047344;28;20067;-83
2024/02/03 11:08:20;;;;;;;10.45;3.15;;;10.00;99.90;;;;;;5039744;28;20034;-84
2024/02/03 11:10:49;;;;;;;18.92;4.50;;;10.10;99.90;;;;;;5031660;28;20392;-84
2024/02/03 11:13:22;;;;;;;8.57;3.00;;;10.10;99.90;;;;;;5029830;28;20060;-84
2024/02/03 11:15:54;;;;;;;10.30;4.05;;;10.10;99.90;;;;;;5038558;28;20469;-84
2024/02/03 11:18:19;;;;;;;12.73;3.88;;;10.20;99.90;;;;;;5044716;28;20044;-83
2024/02/03 11:20:45;;;;;;;9.93;3.33;;;10.20;99.90;;;;;;5050764;28;20017;-84
2024/02/03 11:23:13;;;;;;;13.52;4.03;;;11.20;99.90;;;;;;5040383;28;20021;-84
2024/02/03 11:25:42;;;;;;;10.65;3.58;;;10.30;99.90;;;;;;5048711;28;20032;-83
2024/02/03 11:28:07;;;;;;;15.02;3.22;;;10.80;99.90;;;;;;5046795;28;20032;-83
2024/02/03 11:30:33;;;;;;;9.98;4.10;;;10.30;99.90;;;;;;5035824;28;20049;-82
2024/02/03 11:32:58;;;;;;;13.55;3.47;;;10.30;99.90;;;;;;5040617;28;20040;-83
2024/02/03 11:35:25;;;;;;;11.70;3.17;;;10.30;99.90;;;;;;5035338;28;20022;-84
2024/02/03 11:37:51;;;;;;;14.80;3.22;;;10.30;99.90;;;;;;5052569;28;20460;-84
2024/02/03 11:40:17;;;;;;;12.32;4.15;;;10.30;99.90;;;;;;5045030;28;20021;-81
2024/02/03 11:42:43;;;;;;;23.42;4.38;;;10.30;99.90;;;;;;5053014;28;20465;-83
2024/02/03 11:45:14;;;;;;;8.10;3.50;;;10.30;99.90;;;;;;5055153;28;20473;-83
2024/02/03 11:47:40;;;;;;;17.50;4.55;;;10.30;99.90;;;;;;5055939;28;20487;-84
2024/02/03 11:50:07;;;;;;;15.35;4.47;;;10.70;99.90;;;;;;5052256;28;20032;-83
2024/02/03 11:52:32;;;;;;;12.25;3.42;;;10.30;99.90;;;;;;5032994;28;20051;-83
2024/02/03 11:54:58;;;;;;;14.10;3.67;;;10.30;99.90;;;;;;5036559;28;20100;-83
2024/02/03 11:57:24;;;;;;;17.50;4.20;;;10.30;99.90;;;;;;5051367;28;20499;-83
2024/02/03 12:00:02;;;;;;;15.80;3.88;;;10.20;99.90;;;;;;5052117;28;20055;-83
2024/02/03 12:02:29;;;;;;;9.73;3.10;;;10.20;99.90;;;;;;5051758;28;20389;-83
2024/02/03 12:04:55;;;;;;;16.92;4.35;;;10.20;99.90;;;;;;5052417;28;20166;-82
2024/02/03 12:07:21;;;;;;;14.15;3.50;;;10.30;99.90;;;;;;5054659;28;20123;-83
2024/02/03 12:09:47;;;;;;;10.50;3.60;;;10.20;99.90;;;;;;5053153;28;20027;-85
2024/02/03 12:12:12;;;;;;;6.88;3.10;;;10.20;99.90;;;;;;5054559;28;20032;-83
2024/02/03 12:14:38;;;;;;;9.82;2.70;;;10.20;99.90;;;;;;5043247;28;20034;-82
2024/02/03 12:17:03;;;;;;;9.88;3.10;;;10.20;99.90;;;;;;5036316;28;20026;-85
2024/02/03 12:19:29;;;;;;;8.02;2.45;;;10.20;99.90;;;;;;5035166;28;20025;-86
2024/02/03 12:21:57;;;;;;;15.02;4.07;;;10.20;99.90;;;;;;5041281;28;20453;-84
2024/02/03 12:24:22;;;;;;;8.73;3.42;;;10.20;99.90;;;;;;5045100;28;20107;-84
2024/02/03 12:26:48;;;;;;;5.63;3.65;;;11.00;99.90;;;;;;5053486;28;20487;-84
2024/02/03 12:29:14;;;;;;;11.13;3.50;;;10.30;99.90;;;;;;5054270;28;20526;-85
2024/02/03 12:31:40;;;;;;;10.45;3.38;;;10.30;99.90;;;;;;5044079;28;20072;-84
2024/02/03 12:34:06;;;;;;;9.80;3.20;;;10.30;99.90;;;;;;5033004;28;20025;-84
2024/02/03 12:36:31;;;;;;;8.00;3.97;;;10.40;99.90;;;;;;5032507;28;20057;-84
2024/02/03 12:38:58;;;;;;;6.00;3.10;;;10.40;99.90;;;;;;5032677;28;20014;-83